sensor_id;sensor_type;location;lat;lon;timestamp;pressure;altitude;pressure_sealevel;temperature
24714;BMP280;12820;51.580;5.010;2023-08-30T00:04:31;100824.50;;;16.15
24714;BMP280;12820;51.580;5.010;2023-08-30T00:09:33;100820.31;;;16.14
24714;BMP280;12820;51.580;5.010;2023-08-30T00:14:38;100809.41;;;16.12
24714;BMP280;12820;51.580;5.010;2023-08-30T00:19:40;100806.91;;;16.10
24714;BMP280;12820;51.580;5.010;2023-08-30T00:24:42;100811.28;;;16.07
24714;BMP280;12820;51.580;5.010;2023-08-30T00:29:44;100809.66;;;16.04
24714;BMP280;12820;51.580;5.010;2023-08-30T00:34:50;100798.81;;;16.01
24714;BMP280;12820;51.580;5.010;2023-08-30T00:39:52;100802.41;;;15.96
24714;BMP280;12820;51.580;5.010;2023-08-30T00:44:54;100793.22;;;15.92
24714;BMP280;12820;51.580;5.010;2023-08-30T00:49:57;100780.75;;;15.86
24714;BMP280;12820;51.580;5.010;2023-08-30T00:54:59;100776.63;;;15.83
24714;BMP280;12820;51.580;5.010;2023-08-30T01:00:02;100769.19;;;15.79
24714;BMP280;12820;51.580;5.010;2023-08-30T01:05:07;100773.59;;;15.74
24714;BMP280;12820;51.580;5.010;2023-08-30T01:10:10;100772.81;;;15.72
24714;BMP280;12820;51.580;5.010;2023-08-30T01:15:17;100773.69;;;15.71
24714;BMP280;12820;51.580;5.010;2023-08-30T01:20:21;100765.25;;;15.71
24714;BMP280;12820;51.580;5.010;2023-08-30T01:30:45;100774.69;;;15.67
24714;BMP280;12820;51.580;5.010;2023-08-30T01:35:48;100772.28;;;15.64
24714;BMP280;12820;51.580;5.010;2023-08-30T01:40:51;100763.94;;;15.61
24714;BMP280;12820;51.580;5.010;2023-08-30T01:45:54;100769.94;;;15.59
24714;BMP280;12820;51.580;5.010;2023-08-30T01:50:58;100763.34;;;15.55
24714;BMP280;12820;51.580;5.010;2023-08-30T01:56:03;100750.00;;;15.50
24714;BMP280;12820;51.580;5.010;2023-08-30T02:01:05;100752.63;;;15.47
24714;BMP280;12820;51.580;5.010;2023-08-30T02:06:13;100746.91;;;15.42
24714;BMP280;12820;51.580;5.010;2023-08-30T02:11:19;100754.66;;;15.38
24714;BMP280;12820;51.580;5.010;2023-08-30T02:16:25;100748.03;;;15.34
24714;BMP280;12820;51.580;5.010;2023-08-30T02:21:28;100753.22;;;15.31
24714;BMP280;12820;51.580;5.010;2023-08-30T02:26:30;100750.84;;;15.27
24714;BMP280;12820;51.580;5.010;2023-08-30T02:31:33;100747.53;;;15.25
24714;BMP280;12820;51.580;5.010;2023-08-30T02:36:35;100747.53;;;15.25
24714;BMP280;12820;51.580;5.010;2023-08-30T02:41:37;100744.97;;;15.26
24714;BMP280;12820;51.580;5.010;2023-08-30T02:46:40;100737.28;;;15.28
24714;BMP280;12820;51.580;5.010;2023-08-30T02:51:43;100742.25;;;15.30
24714;BMP280;12820;51.580;5.010;2023-08-30T02:56:46;100730.28;;;15.35
24714;BMP280;12820;51.580;5.010;2023-08-30T03:01:48;100723.44;;;15.37
24714;BMP280;12820;51.580;5.010;2023-08-30T03:06:53;100716.63;;;15.39
24714;BMP280;12820;51.580;5.010;2023-08-30T03:11:55;100708.97;;;15.41
24714;BMP280;12820;51.580;5.010;2023-08-30T03:16:58;100694.63;;;15.41
24714;BMP280;12820;51.580;5.010;2023-08-30T03:22:01;100684.38;;;15.44
24714;BMP280;12820;51.580;5.010;2023-08-30T03:27:03;100670.00;;;15.45
24714;BMP280;12820;51.580;5.010;2023-08-30T03:32:05;100654.81;;;15.45
24714;BMP280;12820;51.580;5.010;2023-08-30T03:37:07;100640.47;;;15.44
24714;BMP280;12820;51.580;5.010;2023-08-30T03:42:10;100624.50;;;15.42
24714;BMP280;12820;51.580;5.010;2023-08-30T03:47:12;100620.38;;;15.39
24714;BMP280;12820;51.580;5.010;2023-08-30T03:52:15;100638.16;;;15.38
24714;BMP280;12820;51.580;5.010;2023-08-30T03:57:17;100634.03;;;15.35
24714;BMP280;12820;51.580;5.010;2023-08-30T04:02:19;100631.56;;;15.34
24714;BMP280;12820;51.580;5.010;2023-08-30T04:07:22;100613.00;;;15.33
24714;BMP280;12820;51.580;5.010;2023-08-30T04:12:24;100607.91;;;15.35
24714;BMP280;12820;51.580;5.010;2023-08-30T04:17:26;100608.72;;;15.35
24714;BMP280;12820;51.580;5.010;2023-08-30T04:22:28;100602.84;;;15.35
24714;BMP280;12820;51.580;5.010;2023-08-30T04:27:32;100584.28;;;15.34
24714;BMP280;12820;51.580;5.010;2023-08-30T04:32:34;100591.88;;;15.34
24714;BMP280;12820;51.580;5.010;2023-08-30T04:37:37;100590.22;;;15.33
24714;BMP280;12820;51.580;5.010;2023-08-30T04:42:42;100581.75;;;15.34
24714;BMP280;12820;51.580;5.010;2023-08-30T04:47:45;100577.50;;;15.35
24714;BMP280;12820;51.580;5.010;2023-08-30T04:52:48;100570.63;;;15.38
24714;BMP280;12820;51.580;5.010;2023-08-30T04:57:51;100566.22;;;15.43
24714;BMP280;12820;51.580;5.010;2023-08-30T05:02:53;100570.22;;;15.48
24714;BMP280;12820;51.580;5.010;2023-08-30T05:07:56;100568.28;;;15.55
24714;BMP280;12820;51.580;5.010;2023-08-30T05:12:58;100560.34;;;15.64
24714;BMP280;12820;51.580;5.010;2023-08-30T05:18:00;100568.47;;;15.71
24714;BMP280;12820;51.580;5.010;2023-08-30T05:23:03;100567.28;;;15.80
24714;BMP280;12820;51.580;5.010;2023-08-30T05:28:05;100558.50;;;15.88
24714;BMP280;12820;51.580;5.010;2023-08-30T05:33:08;100548.91;;;15.96
24714;BMP280;12820;51.580;5.010;2023-08-30T05:38:43;100550.19;;;16.05
24714;BMP280;12820;51.580;5.010;2023-08-30T05:43:57;100547.28;;;16.14
24714;BMP280;12820;51.580;5.010;2023-08-30T05:49:00;100551.16;;;16.22
24714;BMP280;12820;51.580;5.010;2023-08-30T05:54:04;100544.13;;;16.29
24714;BMP280;12820;51.580;5.010;2023-08-30T05:59:06;100542.03;;;16.38
24714;BMP280;12820;51.580;5.010;2023-08-30T06:04:09;100528.28;;;16.43
24714;BMP280;12820;51.580;5.010;2023-08-30T06:09:11;100535.63;;;16.49
24714;BMP280;12820;51.580;5.010;2023-08-30T06:14:14;100549.06;;;16.51
24714;BMP280;12820;51.580;5.010;2023-08-30T06:19:16;100548.97;;;16.54
24714;BMP280;12820;51.580;5.010;2023-08-30T06:24:19;100547.16;;;16.56
24714;BMP280;12820;51.580;5.010;2023-08-30T06:29:21;100554.72;;;16.57
24714;BMP280;12820;51.580;5.010;2023-08-30T06:34:23;100532.75;;;16.56
24714;BMP280;12820;51.580;5.010;2023-08-30T06:39:25;100516.59;;;16.59
24714;BMP280;12820;51.580;5.010;2023-08-30T06:44:27;100508.91;;;16.60
24714;BMP280;12820;51.580;5.010;2023-08-30T06:49:30;100493.69;;;16.60
24714;BMP280;12820;51.580;5.010;2023-08-30T06:54:34;100500.50;;;16.60
24714;BMP280;12820;51.580;5.010;2023-08-30T06:59:37;100493.00;;;16.57
24714;BMP280;12820;51.580;5.010;2023-08-30T07:04:40;100473.59;;;16.56
24714;BMP280;12820;51.580;5.010;2023-08-30T07:09:42;100476.06;;;16.57
24714;BMP280;12820;51.580;5.010;2023-08-30T07:14:44;100473.47;;;16.59
24714;BMP280;12820;51.580;5.010;2023-08-30T07:19:47;100472.44;;;16.63
24714;BMP280;12820;51.580;5.010;2023-08-30T07:24:50;100471.25;;;16.70
24714;BMP280;12820;51.580;5.010;2023-08-30T07:29:53;100464.28;;;16.74
24714;BMP280;12820;51.580;5.010;2023-08-30T07:34:55;100464.91;;;16.79
24714;BMP280;12820;51.580;5.010;2023-08-30T07:39:57;100468.19;;;16.81
24714;BMP280;12820;51.580;5.010;2023-08-30T07:44:59;100457.84;;;16.86
24714;BMP280;12820;51.580;5.010;2023-08-30T07:50:01;100458.53;;;16.89
24714;BMP280;12820;51.580;5.010;2023-08-30T07:55:03;100463.38;;;16.95
24714;BMP280;12820;51.580;5.010;2023-08-30T08:00:06;100451.75;;;17.07
24714;BMP280;12820;51.580;5.010;2023-08-30T08:05:12;100449.63;;;17.17
24714;BMP280;12820;51.580;5.010;2023-08-30T08:10:15;100462.19;;;17.20
24714;BMP280;12820;51.580;5.010;2023-08-30T08:15:17;100465.41;;;17.23
24714;BMP280;12820;51.580;5.010;2023-08-30T08:20:19;100471.16;;;17.26
24714;BMP280;12820;51.580;5.010;2023-08-30T08:25:21;100468.34;;;17.32
24714;BMP280;12820;51.580;5.010;2023-08-30T08:30:25;100462.75;;;17.42
24714;BMP280;12820;51.580;5.010;2023-08-30T08:35:27;100460.03;;;17.63
24714;BMP280;12820;51.580;5.010;2023-08-30T08:40:29;100468.53;;;17.97
24714;BMP280;12820;51.580;5.010;2023-08-30T08:45:45;100465.31;;;18.58
24714;BMP280;12820;51.580;5.010;2023-08-30T08:50:48;100464.41;;;19.06
24714;BMP280;12820;51.580;5.010;2023-08-30T08:55:52;100454.53;;;19.30
24714;BMP280;12820;51.580;5.010;2023-08-30T09:00:55;100450.16;;;19.62
24714;BMP280;12820;51.580;5.010;2023-08-30T09:05:57;100454.34;;;19.92
24714;BMP280;12820;51.580;5.010;2023-08-30T09:11:00;100442.47;;;20.20
24714;BMP280;12820;51.580;5.010;2023-08-30T09:16:02;100449.41;;;20.45
24714;BMP280;12820;51.580;5.010;2023-08-30T09:21:09;100460.19;;;20.77
24714;BMP280;12820;51.580;5.010;2023-08-30T09:26:11;100453.94;;;21.08
24714;BMP280;12820;51.580;5.010;2023-08-30T09:31:17;100455.25;;;21.15
24714;BMP280;12820;51.580;5.010;2023-08-30T09:36:24;100456.56;;;21.07
24714;BMP280;12820;51.580;5.010;2023-08-30T09:41:26;100445.69;;;21.31
24714;BMP280;12820;51.580;5.010;2023-08-30T09:46:29;100439.75;;;21.56
24714;BMP280;12820;51.580;5.010;2023-08-30T09:51:53;100447.31;;;21.83
24714;BMP280;12820;51.580;5.010;2023-08-30T09:57:15;100440.69;;;22.17
24714;BMP280;12820;51.580;5.010;2023-08-30T10:02:19;100433.81;;;22.06
24714;BMP280;12820;51.580;5.010;2023-08-30T10:07:22;100439.53;;;21.97
24714;BMP280;12820;51.580;5.010;2023-08-30T10:12:25;100449.38;;;22.03
24714;BMP280;12820;51.580;5.010;2023-08-30T10:17:28;100441.63;;;22.16
24714;BMP280;12820;51.580;5.010;2023-08-30T10:22:37;100446.97;;;22.38
24714;BMP280;12820;51.580;5.010;2023-08-30T10:27:43;100449.19;;;22.79
24714;BMP280;12820;51.580;5.010;2023-08-30T10:32:47;100454.19;;;22.92
24714;BMP280;12820;51.580;5.010;2023-08-30T10:37:57;100452.34;;;23.29
24714;BMP280;12820;51.580;5.010;2023-08-30T10:43:01;100462.00;;;23.49
24714;BMP280;12820;51.580;5.010;2023-08-30T10:48:04;100457.16;;;23.56
24714;BMP280;12820;51.580;5.010;2023-08-30T10:53:13;100459.88;;;23.66
24714;BMP280;12820;51.580;5.010;2023-08-30T10:58:16;100455.09;;;23.72
24714;BMP280;12820;51.580;5.010;2023-08-30T11:03:18;100464.41;;;23.85
24714;BMP280;12820;51.580;5.010;2023-08-30T11:08:21;100456.09;;;24.05
24714;BMP280;12820;51.580;5.010;2023-08-30T11:13:23;100459.63;;;24.36
24714;BMP280;12820;51.580;5.010;2023-08-30T11:18:26;100464.44;;;24.40
24714;BMP280;12820;51.580;5.010;2023-08-30T11:23:28;100473.78;;;24.52
24714;BMP280;12820;51.580;5.010;2023-08-30T11:28:31;100478.84;;;24.75
24714;BMP280;12820;51.580;5.010;2023-08-30T11:33:34;100480.81;;;24.82
24714;BMP280;12820;51.580;5.010;2023-08-30T11:38:37;100476.97;;;24.87
24714;BMP280;12820;51.580;5.010;2023-08-30T11:43:40;100481.28;;;24.87
24714;BMP280;12820;51.580;5.010;2023-08-30T11:48:43;100467.25;;;25.01
24714;BMP280;12820;51.580;5.010;2023-08-30T11:53:46;100479.41;;;25.10
24714;BMP280;12820;51.580;5.010;2023-08-30T11:58:48;100477.59;;;25.43
24714;BMP280;12820;51.580;5.010;2023-08-30T12:03:50;100479.72;;;25.79
24714;BMP280;12820;51.580;5.010;2023-08-30T12:08:57;100479.66;;;25.90
24714;BMP280;12820;51.580;5.010;2023-08-30T12:14:03;100484.34;;;25.96
24714;BMP280;12820;51.580;5.010;2023-08-30T12:19:11;100469.88;;;26.24
24714;BMP280;12820;51.580;5.010;2023-08-30T12:24:17;100484.41;;;26.65
24714;BMP280;12820;51.580;5.010;2023-08-30T12:29:19;100477.56;;;27.13
24714;BMP280;12820;51.580;5.010;2023-08-30T12:34:21;100490.53;;;27.02
24714;BMP280;12820;51.580;5.010;2023-08-30T12:39:23;100485.63;;;27.47
24714;BMP280;12820;51.580;5.010;2023-08-30T12:44:25;100487.03;;;27.69
24714;BMP280;12820;51.580;5.010;2023-08-30T12:49:27;100493.81;;;27.80
24714;BMP280;12820;51.580;5.010;2023-08-30T12:54:29;100503.88;;;27.64
24714;BMP280;12820;51.580;5.010;2023-08-30T12:59:31;100494.50;;;29.95
24714;BMP280;12820;51.580;5.010;2023-08-30T13:04:34;100501.22;;;30.39
24714;BMP280;12820;51.580;5.010;2023-08-30T13:09:39;100498.25;;;29.66
24714;BMP280;12820;51.580;5.010;2023-08-30T13:14:41;100498.06;;;29.33
24714;BMP280;12820;51.580;5.010;2023-08-30T13:19:43;100505.84;;;31.74
24714;BMP280;12820;51.580;5.010;2023-08-30T13:24:46;100503.31;;;31.97
24714;BMP280;12820;51.580;5.010;2023-08-30T13:29:49;100489.31;;;32.29
24714;BMP280;12820;51.580;5.010;2023-08-30T13:34:51;100508.06;;;31.45
24714;BMP280;12820;51.580;5.010;2023-08-30T13:39:54;100493.97;;;34.35
24714;BMP280;12820;51.580;5.010;2023-08-30T13:44:56;100507.78;;;32.81
24714;BMP280;12820;51.580;5.010;2023-08-30T13:50:00;100496.41;;;31.49
24714;BMP280;12820;51.580;5.010;2023-08-30T13:55:02;100485.34;;;34.48
24714;BMP280;12820;51.580;5.010;2023-08-30T14:00:05;100488.88;;;36.81
24714;BMP280;12820;51.580;5.010;2023-08-30T14:05:12;100485.47;;;37.85
24714;BMP280;12820;51.580;5.010;2023-08-30T14:10:14;100489.59;;;36.36
24714;BMP280;12820;51.580;5.010;2023-08-30T14:15:22;100488.50;;;36.51
24714;BMP280;12820;51.580;5.010;2023-08-30T14:20:24;100486.69;;;38.33
24714;BMP280;12820;51.580;5.010;2023-08-30T14:25:27;100496.13;;;38.78
24714;BMP280;12820;51.580;5.010;2023-08-30T14:30:30;100494.97;;;37.99
24714;BMP280;12820;51.580;5.010;2023-08-30T14:35:32;100516.38;;;36.11
24714;BMP280;12820;51.580;5.010;2023-08-30T14:40:35;100504.63;;;34.47
24714;BMP280;12820;51.580;5.010;2023-08-30T14:45:40;100511.38;;;34.42
24714;BMP280;12820;51.580;5.010;2023-08-30T14:50:43;100520.53;;;35.86
24714;BMP280;12820;51.580;5.010;2023-08-30T14:55:46;100514.84;;;36.70
24714;BMP280;12820;51.580;5.010;2023-08-30T15:00:49;100506.25;;;37.22
24714;BMP280;12820;51.580;5.010;2023-08-30T15:05:55;100524.56;;;36.82
24714;BMP280;12820;51.580;5.010;2023-08-30T15:10:58;100525.38;;;36.83
24714;BMP280;12820;51.580;5.010;2023-08-30T15:16:00;100526.00;;;37.18
24714;BMP280;12820;51.580;5.010;2023-08-30T15:21:02;100526.91;;;37.44
24714;BMP280;12820;51.580;5.010;2023-08-30T15:26:05;100516.91;;;37.66
24714;BMP280;12820;51.580;5.010;2023-08-30T15:31:07;100537.06;;;37.59
24714;BMP280;12820;51.580;5.010;2023-08-30T15:36:11;100535.50;;;37.71
24714;BMP280;12820;51.580;5.010;2023-08-30T15:41:14;100533.41;;;37.54
24714;BMP280;12820;51.580;5.010;2023-08-30T15:46:16;100535.06;;;37.16
24714;BMP280;12820;51.580;5.010;2023-08-30T15:51:18;100525.50;;;37.02
24714;BMP280;12820;51.580;5.010;2023-08-30T15:56:26;100536.13;;;36.94
24714;BMP280;12820;51.580;5.010;2023-08-30T16:01:28;100533.06;;;36.84
24714;BMP280;12820;51.580;5.010;2023-08-30T16:06:30;100531.78;;;36.74
24714;BMP280;12820;51.580;5.010;2023-08-30T16:11:32;100528.88;;;36.63
24714;BMP280;12820;51.580;5.010;2023-08-30T16:16:35;100535.19;;;36.48
24714;BMP280;12820;51.580;5.010;2023-08-30T16:21:37;100534.00;;;36.24
24714;BMP280;12820;51.580;5.010;2023-08-30T16:26:39;100541.31;;;35.73
24714;BMP280;12820;51.580;5.010;2023-08-30T16:31:42;100540.44;;;35.32
24714;BMP280;12820;51.580;5.010;2023-08-30T16:36:49;100535.31;;;34.96
24714;BMP280;12820;51.580;5.010;2023-08-30T16:41:51;100535.78;;;34.63
24714;BMP280;12820;51.580;5.010;2023-08-30T16:46:53;100540.34;;;34.33
24714;BMP280;12820;51.580;5.010;2023-08-30T16:51:56;100534.31;;;33.89
24714;BMP280;12820;51.580;5.010;2023-08-30T16:56:58;100542.59;;;33.33
24714;BMP280;12820;51.580;5.010;2023-08-30T17:02:01;100539.38;;;32.62
24714;BMP280;12820;51.580;5.010;2023-08-30T17:07:05;100549.44;;;31.87
24714;BMP280;12820;51.580;5.010;2023-08-30T17:12:07;100550.78;;;31.10
24714;BMP280;12820;51.580;5.010;2023-08-30T17:17:11;100557.88;;;30.34
24714;BMP280;12820;51.580;5.010;2023-08-30T17:22:14;100560.94;;;29.52
24714;BMP280;12820;51.580;5.010;2023-08-30T17:27:16;100573.63;;;28.75
24714;BMP280;12820;51.580;5.010;2023-08-30T17:32:18;100576.25;;;28.01
24714;BMP280;12820;51.580;5.010;2023-08-30T17:37:20;100582.31;;;27.34
24714;BMP280;12820;51.580;5.010;2023-08-30T17:42:23;100589.34;;;26.73
24714;BMP280;12820;51.580;5.010;2023-08-30T17:47:25;100591.25;;;26.21
24714;BMP280;12820;51.580;5.010;2023-08-30T17:52:28;100597.00;;;25.72
24714;BMP280;12820;51.580;5.010;2023-08-30T17:57:30;100599.88;;;25.27
24714;BMP280;12820;51.580;5.010;2023-08-30T18:02:32;100599.81;;;24.84
24714;BMP280;12820;51.580;5.010;2023-08-30T18:07:35;100590.09;;;24.43
24714;BMP280;12820;51.580;5.010;2023-08-30T18:12:37;100599.56;;;24.09
24714;BMP280;12820;51.580;5.010;2023-08-30T18:17:40;100602.03;;;23.75
24714;BMP280;12820;51.580;5.010;2023-08-30T18:22:42;100606.41;;;23.51
24714;BMP280;12820;51.580;5.010;2023-08-30T18:27:44;100615.06;;;23.25
24714;BMP280;12820;51.580;5.010;2023-08-30T18:32:46;100625.19;;;23.02
24714;BMP280;12820;51.580;5.010;2023-08-30T18:37:49;100633.41;;;22.83
24714;BMP280;12820;51.580;5.010;2023-08-30T18:42:52;100640.44;;;22.67
24714;BMP280;12820;51.580;5.010;2023-08-30T18:47:54;100642.44;;;22.50
24714;BMP280;12820;51.580;5.010;2023-08-30T18:52:57;100657.13;;;22.35
24714;BMP280;12820;51.580;5.010;2023-08-30T18:58:00;100670.13;;;22.20
24714;BMP280;12820;51.580;5.010;2023-08-30T19:03:02;100673.50;;;22.07
24714;BMP280;12820;51.580;5.010;2023-08-30T19:08:06;100678.88;;;21.90
24714;BMP280;12820;51.580;5.010;2023-08-30T19:13:09;100691.81;;;21.73
24714;BMP280;12820;51.580;5.010;2023-08-30T19:18:12;100686.94;;;21.57
24714;BMP280;12820;51.580;5.010;2023-08-30T19:23:14;100704.44;;;21.36
24714;BMP280;12820;51.580;5.010;2023-08-30T19:28:16;100704.16;;;21.13
24714;BMP280;12820;51.580;5.010;2023-08-30T19:33:20;100709.56;;;20.93
24714;BMP280;12820;51.580;5.010;2023-08-30T19:38:22;100715.88;;;20.73
24714;BMP280;12820;51.580;5.010;2023-08-30T19:43:25;100730.75;;;20.51
24714;BMP280;12820;51.580;5.010;2023-08-30T19:48:27;100724.94;;;20.34
24714;BMP280;12820;51.580;5.010;2023-08-30T19:53:30;100704.75;;;20.15
24714;BMP280;12820;51.580;5.010;2023-08-30T19:58:32;100702.28;;;19.98
24714;BMP280;12820;51.580;5.010;2023-08-30T20:03:35;100709.09;;;19.83
24714;BMP280;12820;51.580;5.010;2023-08-30T20:08:37;100706.53;;;19.68
24714;BMP280;12820;51.580;5.010;2023-08-30T20:13:39;100708.25;;;19.51
24714;BMP280;12820;51.580;5.010;2023-08-30T20:18:42;100713.50;;;19.33
24714;BMP280;12820;51.580;5.010;2023-08-30T20:23:45;100711.13;;;19.13
24714;BMP280;12820;51.580;5.010;2023-08-30T20:28:47;100704.28;;;18.97
24714;BMP280;12820;51.580;5.010;2023-08-30T20:33:51;100703.44;;;18.82
24714;BMP280;12820;51.580;5.010;2023-08-30T20:38:54;100701.72;;;18.64
24714;BMP280;12820;51.580;5.010;2023-08-30T20:43:58;100716.81;;;18.50
24714;BMP280;12820;51.580;5.010;2023-08-30T20:49:00;100715.75;;;18.38
24714;BMP280;12820;51.580;5.010;2023-08-30T20:54:02;100723.00;;;18.29
24714;BMP280;12820;51.580;5.010;2023-08-30T20:59:05;100725.31;;;18.16
24714;BMP280;12820;51.580;5.010;2023-08-30T21:04:07;100727.50;;;18.06
24714;BMP280;12820;51.580;5.010;2023-08-30T21:09:09;100728.81;;;17.96
24714;BMP280;12820;51.580;5.010;2023-08-30T21:14:11;100730.94;;;17.87
24714;BMP280;12820;51.580;5.010;2023-08-30T21:19:15;100740.66;;;17.78
24714;BMP280;12820;51.580;5.010;2023-08-30T21:24:17;100751.09;;;17.72
24714;BMP280;12820;51.580;5.010;2023-08-30T21:29:19;100749.84;;;17.62
24714;BMP280;12820;51.580;5.010;2023-08-30T21:34:21;100733.38;;;17.51
24714;BMP280;12820;51.580;5.010;2023-08-30T21:39:23;100744.78;;;17.42
24714;BMP280;12820;51.580;5.010;2023-08-30T21:44:25;100743.31;;;17.37
24714;BMP280;12820;51.580;5.010;2023-08-30T21:49:28;100750.31;;;17.32
24714;BMP280;12820;51.580;5.010;2023-08-30T21:54:30;100750.50;;;17.28
24714;BMP280;12820;51.580;5.010;2023-08-30T21:59:32;100753.88;;;17.28
24714;BMP280;12820;51.580;5.010;2023-08-30T22:04:34;100753.03;;;17.28
24714;BMP280;12820;51.580;5.010;2023-08-30T22:09:36;100756.34;;;17.30
24714;BMP280;12820;51.580;5.010;2023-08-30T22:14:38;100749.47;;;17.32
24714;BMP280;12820;51.580;5.010;2023-08-30T22:19:53;100762.97;;;17.34
24714;BMP280;12820;51.580;5.010;2023-08-30T22:24:55;100763.72;;;17.36
24714;BMP280;12820;51.580;5.010;2023-08-30T22:30:00;100750.19;;;17.35
24714;BMP280;12820;51.580;5.010;2023-08-30T22:35:04;100771.28;;;17.37
24714;BMP280;12820;51.580;5.010;2023-08-30T22:40:06;100756.03;;;17.37
24714;BMP280;12820;51.580;5.010;2023-08-30T22:45:10;100768.03;;;17.34
24714;BMP280;12820;51.580;5.010;2023-08-30T22:50:13;100772.44;;;17.30
24714;BMP280;12820;51.580;5.010;2023-08-30T22:55:15;100767.41;;;17.29
24714;BMP280;12820;51.580;5.010;2023-08-30T23:00:17;100755.72;;;17.25
24714;BMP280;12820;51.580;5.010;2023-08-30T23:05:19;100753.28;;;17.22
24714;BMP280;12820;51.580;5.010;2023-08-30T23:10:22;100758.66;;;17.16
24714;BMP280;12820;51.580;5.010;2023-08-30T23:15:26;100761.53;;;17.07
24714;BMP280;12820;51.580;5.010;2023-08-30T23:20:28;100771.97;;;17.02
24714;BMP280;12820;51.580;5.010;2023-08-30T23:25:30;100768.91;;;16.94
24714;BMP280;12820;51.580;5.010;2023-08-30T23:30:32;100765.78;;;16.88
24714;BMP280;12820;51.580;5.010;2023-08-30T23:35:35;100772.00;;;16.79
24714;BMP280;12820;51.580;5.010;2023-08-30T23:40:37;100771.50;;;16.71
24714;BMP280;12820;51.580;5.010;2023-08-30T23:45:39;100771.88;;;16.63
24714;BMP280;12820;51.580;5.010;2023-08-30T23:50:42;100778.03;;;16.56
24714;BMP280;12820;51.580;5.010;2023-08-30T23:55:47;100773.34;;;16.47
